createdAt,value
2022-11-05T00:10:26.560Z,9.14
2022-11-05T00:25:30.181Z,9.08
2022-11-05T00:40:32.138Z,9.07
2022-11-05T00:55:45.477Z,9.10
2022-11-05T01:10:50.519Z,9.21
2022-11-05T01:25:52.440Z,9.31
2022-11-05T01:40:54.461Z,9.37
2022-11-05T01:56:03.021Z,9.30
2022-11-05T02:11:05.963Z,9.27
2022-11-05T02:26:31.078Z,9.24
2022-11-05T02:42:14.220Z,9.14
2022-11-05T02:57:19.821Z,9.08
2022-11-05T03:12:45.978Z,9.06
2022-11-05T03:27:54.499Z,9.06
2022-11-05T03:42:58.640Z,9.08
2022-11-05T03:58:01.303Z,9.04
2022-11-05T04:13:21.878Z,9.03
2022-11-05T04:28:43.762Z,8.96
2022-11-05T04:43:45.741Z,8.90
2022-11-05T04:58:48.021Z,8.80
2022-11-05T05:13:49.979Z,8.79
2022-11-05T05:28:53.848Z,8.73
2022-11-05T05:43:55.898Z,8.68
2022-11-05T05:58:57.801Z,8.66
2022-11-05T06:13:59.800Z,8.75
2022-11-05T06:29:01.771Z,8.77
2022-11-05T06:44:03.818Z,8.85
2022-11-05T06:59:05.802Z,8.96
2022-11-05T07:14:07.721Z,9.06
2022-11-05T07:29:09.700Z,9.17
2022-11-05T07:44:12.126Z,9.30
2022-11-05T07:59:14.079Z,9.48
2022-11-05T08:14:16.002Z,9.61
2022-11-05T08:29:18.081Z,9.67
2022-11-05T08:44:19.958Z,9.70
2022-11-05T08:59:21.997Z,9.89
2022-11-05T09:14:27.280Z,9.93
2022-11-05T09:29:29.182Z,9.96
2022-11-05T09:44:43.830Z,10.09
2022-11-05T09:59:49.098Z,10.12
2022-11-05T10:15:01.699Z,10.09
2022-11-05T10:30:04.698Z,10.16
2022-11-05T10:45:15.940Z,10.16
2022-11-05T11:00:24.300Z,10.23
2022-11-05T11:15:35.438Z,10.24
2022-11-05T11:30:38.861Z,10.24
2022-11-05T11:45:56.512Z,10.20
2022-11-05T12:01:17.933Z,10.18
2022-11-05T12:16:42.917Z,10.20
2022-11-05T12:31:52.808Z,10.23
2022-11-05T12:47:19.088Z,10.27
2022-11-05T13:02:29.850Z,10.30
2022-11-05T13:17:51.322Z,10.30
2022-11-05T13:33:23.319Z,10.25
2022-11-05T13:48:43.964Z,10.28
2022-11-05T14:03:50.859Z,10.27
2022-11-05T14:19:13.119Z,10.31
2022-11-05T14:34:15.061Z,10.20
2022-11-05T14:49:38.658Z,10.18
2022-11-05T15:04:43.020Z,10.18
2022-11-05T15:19:46.077Z,10.17
2022-11-05T15:34:56.181Z,10.09
2022-11-05T15:50:05.680Z,10.06
2022-11-05T16:05:13.959Z,10.07
2022-11-05T16:20:27.647Z,10.17
2022-11-05T16:35:29.660Z,10.04
2022-11-05T16:50:33.078Z,10.09
2022-11-05T17:05:35.037Z,10.14
2022-11-05T17:20:42.998Z,10.12
2022-11-05T17:35:45.142Z,10.09
2022-11-05T17:50:49.845Z,9.92
2022-11-05T18:05:51.924Z,9.81
2022-11-05T18:20:58.121Z,9.79
2022-11-05T18:36:00.059Z,9.78
2022-11-05T18:51:09.359Z,9.79
2022-11-05T19:06:11.428Z,9.79
2022-11-05T19:21:18.160Z,9.73
2022-11-05T19:36:21.838Z,9.67
2022-11-05T19:51:29.078Z,9.66
2022-11-05T20:06:35.560Z,9.56
2022-11-05T20:21:38.080Z,9.45
2022-11-05T20:36:40.209Z,9.39
2022-11-05T20:51:42.178Z,9.37
2022-11-05T21:06:44.239Z,9.27
2022-11-05T21:21:46.370Z,9.04
2022-11-05T21:36:48.398Z,8.96
2022-11-05T21:52:08.700Z,8.83
2022-11-05T22:07:15.897Z,8.75
2022-11-05T22:22:18.138Z,8.63
2022-11-05T22:37:20.057Z,8.46
2022-11-05T22:52:21.959Z,8.31
2022-11-05T23:07:42.358Z,7.99
2022-11-05T23:23:02.688Z,7.70
2022-11-05T23:38:23.197Z,7.46
2022-11-05T23:53:25.419Z,7.38
